createdAt,value
2019-05-03T00:02:28.869Z,16.37
2019-05-03T00:05:13.700Z,16.77
2019-05-03T00:07:45.844Z,23.43
2019-05-03T00:10:19.122Z,21.90
2019-05-03T00:12:52.823Z,18.70
2019-05-03T00:15:45.100Z,20.63
2019-05-03T00:18:15.450Z,16.80
2019-05-03T00:20:46.395Z,19.93
2019-05-03T00:23:19.644Z,26.27
2019-05-03T00:25:52.261Z,19.40
2019-05-03T00:28:23.889Z,21.00
2019-05-03T00:30:54.202Z,25.80
2019-05-03T00:33:24.666Z,26.13
2019-05-03T00:36:14.358Z,20.07
2019-05-03T00:38:45.818Z,20.80
2019-05-03T00:41:16.114Z,19.93
2019-05-03T00:43:46.445Z,20.27
2019-05-03T00:46:16.763Z,21.90
2019-05-03T00:48:48.180Z,19.23
2019-05-03T00:51:22.382Z,19.40
2019-05-03T00:53:53.228Z,19.97
2019-05-03T00:56:23.639Z,20.67
2019-05-03T00:58:57.354Z,16.87
2019-05-03T01:01:27.620Z,18.27
2019-05-03T01:03:58.261Z,20.40
2019-05-03T01:06:28.587Z,17.43
2019-05-03T01:08:59.791Z,16.13
2019-05-03T01:11:30.115Z,21.03
2019-05-03T01:14:02.259Z,18.83
2019-05-03T01:16:32.792Z,17.27
2019-05-03T01:19:05.115Z,22.60
2019-05-03T01:21:35.437Z,16.50
2019-05-03T01:24:05.986Z,20.43
2019-05-03T01:26:36.466Z,19.57
2019-05-03T01:29:06.824Z,17.43
2019-05-03T01:31:46.974Z,18.37
2019-05-03T01:34:17.768Z,19.93
2019-05-03T01:36:48.089Z,20.03
2019-05-03T01:39:18.446Z,23.47
2019-05-03T01:41:48.786Z,18.73
2019-05-03T01:44:19.148Z,19.63
2019-05-03T01:46:54.191Z,28.40
2019-05-03T01:49:31.957Z,30.87
2019-05-03T01:52:12.739Z,18.47
2019-05-03T01:54:43.475Z,20.47
2019-05-03T01:57:13.803Z,20.03
2019-05-03T01:59:44.197Z,21.00
2019-05-03T02:02:39.466Z,29.87
2019-05-03T02:05:42.866Z,21.90
2019-05-03T02:08:14.545Z,23.23
2019-05-03T02:10:48.851Z,25.17
2019-05-03T02:13:19.147Z,25.70
2019-05-03T02:15:49.542Z,23.73
2019-05-03T02:18:22.316Z,23.17
2019-05-03T02:20:52.920Z,19.00
2019-05-03T02:23:24.972Z,24.33
2019-05-03T02:25:59.238Z,20.80
2019-05-03T02:28:29.660Z,20.83
2019-05-03T02:31:03.234Z,23.20
2019-05-03T02:33:33.029Z,27.63
2019-05-03T02:36:04.011Z,24.33
2019-05-03T02:38:37.229Z,26.93
2019-05-03T02:41:08.005Z,22.47
2019-05-03T02:43:45.284Z,25.20
2019-05-03T02:46:45.424Z,28.97
2019-05-03T02:49:31.522Z,24.83
2019-05-03T02:52:01.878Z,21.67
2019-05-03T02:54:32.220Z,22.00
2019-05-03T02:57:02.575Z,25.93
2019-05-03T02:59:36.163Z,26.20
2019-05-03T03:02:06.688Z,23.57
2019-05-03T03:04:37.278Z,22.33
2019-05-03T03:07:08.633Z,24.30
2019-05-03T03:09:40.614Z,22.43
2019-05-03T03:12:11.234Z,24.90
2019-05-03T03:14:42.308Z,21.47
2019-05-03T03:17:14.930Z,26.73
2019-05-03T03:19:48.704Z,21.90
2019-05-03T03:22:20.774Z,27.80
2019-05-03T03:24:55.916Z,27.23
2019-05-03T03:27:29.649Z,24.47
2019-05-03T03:30:28.953Z,28.77
2019-05-03T03:32:58.311Z,24.97
2019-05-03T03:37:55.984Z,27.80
2019-05-03T03:40:26.125Z,25.10
2019-05-03T03:42:59.928Z,35.50
2019-05-03T03:45:30.520Z,33.53
2019-05-03T03:48:02.026Z,32.80
2019-05-03T03:50:36.002Z,30.60
2019-05-03T03:53:10.421Z,24.53
2019-05-03T03:55:45.606Z,31.43
2019-05-03T03:58:21.975Z,30.30
2019-05-03T04:00:51.564Z,31.57
2019-05-03T04:03:22.298Z,30.80
2019-05-03T04:05:55.396Z,32.90
2019-05-03T04:08:25.337Z,30.30
2019-05-03T04:10:56.397Z,32.27
2019-05-03T04:13:27.716Z,27.50
2019-05-03T04:16:09.225Z,29.30
2019-05-03T04:19:01.839Z,23.97
2019-05-03T04:21:35.827Z,30.13
2019-05-03T04:24:06.005Z,31.67
2019-05-03T04:26:37.101Z,25.37
2019-05-03T04:29:07.901Z,26.40
2019-05-03T04:31:38.268Z,32.60
2019-05-03T04:34:11.468Z,32.63
2019-05-03T04:36:45.985Z,32.83
2019-05-03T04:39:20.279Z,29.53
2019-05-03T04:41:47.943Z,36.47
2019-05-03T04:44:21.393Z,30.80
2019-05-03T04:46:55.071Z,41.23
2019-05-03T04:49:26.749Z,27.17
2019-05-03T04:51:57.114Z,39.57
2019-05-03T04:54:41.858Z,30.97
2019-05-03T04:57:17.602Z,29.37
2019-05-03T04:59:45.909Z,30.47
2019-05-03T05:02:16.358Z,31.07
2019-05-03T05:04:46.626Z,31.07
2019-05-03T05:07:16.998Z,32.37
2019-05-03T05:09:47.617Z,37.23
2019-05-03T05:12:20.793Z,33.83
2019-05-03T05:14:51.351Z,32.07
2019-05-03T05:17:41.108Z,31.10
2019-05-03T05:20:18.347Z,33.57
2019-05-03T05:22:48.926Z,26.80
2019-05-03T05:25:21.683Z,27.53
2019-05-03T05:28:04.594Z,30.03
2019-05-03T05:30:35.375Z,31.57
2019-05-03T05:33:10.440Z,29.60
2019-05-03T05:35:40.712Z,29.53
2019-05-03T05:38:12.680Z,32.03
2019-05-03T05:40:45.004Z,36.70
2019-05-03T05:43:15.280Z,36.10
2019-05-03T05:45:45.961Z,30.50
2019-05-03T05:48:21.210Z,26.90
2019-05-03T05:50:51.967Z,34.63
2019-05-03T05:53:22.519Z,31.10
2019-05-03T05:56:10.436Z,29.17
2019-05-03T05:58:49.051Z,36.23
2019-05-03T06:01:26.074Z,30.70
2019-05-03T06:04:06.307Z,29.57
2019-05-03T06:06:46.284Z,37.70
2019-05-03T06:09:30.355Z,28.70
2019-05-03T06:12:21.022Z,32.90
2019-05-03T06:14:58.068Z,34.43
2019-05-03T06:17:34.717Z,43.30
2019-05-03T06:20:24.603Z,35.03
2019-05-03T06:23:02.985Z,33.47
2019-05-03T06:25:37.048Z,35.67
2019-05-03T06:28:21.030Z,39.73
2019-05-03T06:31:02.223Z,33.23
2019-05-03T06:33:34.618Z,35.80
2019-05-03T06:36:04.980Z,31.57
2019-05-03T06:38:38.341Z,33.97
2019-05-03T06:41:12.324Z,32.00
2019-05-03T06:43:47.157Z,34.57
2019-05-03T06:46:18.114Z,29.83
2019-05-03T06:48:47.451Z,28.57
2019-05-03T06:51:20.171Z,32.27
2019-05-03T06:53:50.709Z,30.13
2019-05-03T06:56:24.981Z,36.53
2019-05-03T06:58:55.618Z,33.63
2019-05-03T07:01:38.938Z,29.83
2019-05-03T07:04:24.406Z,31.27
2019-05-03T07:07:13.087Z,39.27
2019-05-03T07:09:48.420Z,26.80
2019-05-03T07:12:19.960Z,42.97
2019-05-03T07:14:50.492Z,27.67
2019-05-03T07:17:20.898Z,28.03
2019-05-03T07:19:51.174Z,27.33
2019-05-03T07:22:21.566Z,29.03
2019-05-03T07:24:51.858Z,22.60
2019-05-03T07:27:22.149Z,22.07
2019-05-03T07:29:52.783Z,19.10
2019-05-03T07:32:24.657Z,23.83
2019-05-03T07:34:58.305Z,25.70
2019-05-03T07:37:28.911Z,18.60
2019-05-03T07:40:01.056Z,16.40
2019-05-03T07:42:34.586Z,22.07
2019-05-03T07:45:05.800Z,20.77
2019-05-03T07:47:36.086Z,16.00
2019-05-03T07:50:06.844Z,18.47
2019-05-03T07:52:37.490Z,15.60
2019-05-03T07:55:08.131Z,17.23
2019-05-03T07:57:47.730Z,14.30
2019-05-03T08:00:21.946Z,20.23
2019-05-03T08:02:52.341Z,23.33
2019-05-03T08:05:24.563Z,19.10
2019-05-03T08:07:55.425Z,16.50
2019-05-03T08:10:27.720Z,13.47
2019-05-03T08:12:58.007Z,19.70
2019-05-03T08:15:28.369Z,23.00
2019-05-03T08:17:58.749Z,11.80
2019-05-03T08:20:29.461Z,17.60
2019-05-03T08:23:00.218Z,18.43
2019-05-03T08:25:30.575Z,12.17
2019-05-03T08:28:00.779Z,13.73
2019-05-03T08:30:47.468Z,13.03
2019-05-03T08:33:39.746Z,17.47
2019-05-03T08:36:10.058Z,14.67
2019-05-03T08:38:40.315Z,18.60
2019-05-03T08:41:14.607Z,22.00
2019-05-03T08:43:44.841Z,17.97
2019-05-03T08:46:15.570Z,18.43
2019-05-03T08:48:45.835Z,15.80
2019-05-03T08:51:16.172Z,18.17
2019-05-03T08:53:46.417Z,18.43
2019-05-03T08:56:19.845Z,13.30
2019-05-03T08:58:50.486Z,16.73
2019-05-03T09:01:20.833Z,11.97
2019-05-03T09:03:51.191Z,15.50
2019-05-03T09:06:21.543Z,26.20
2019-05-03T09:08:54.988Z,21.47
2019-05-03T09:11:33.312Z,19.93
2019-05-03T09:14:00.253Z,19.03
2019-05-03T09:16:32.789Z,17.53
2019-05-03T09:19:03.006Z,17.93
2019-05-03T09:21:34.753Z,12.20
2019-05-03T09:24:08.331Z,13.13
2019-05-03T09:26:39.444Z,13.40
2019-05-03T09:29:09.722Z,18.80
2019-05-03T09:31:40.975Z,16.27
2019-05-03T09:34:11.226Z,16.00
2019-05-03T09:36:41.519Z,16.27
2019-05-03T09:39:12.071Z,18.87
2019-05-03T09:41:44.892Z,10.13
2019-05-03T09:44:16.171Z,16.57
2019-05-03T09:46:46.495Z,13.03
2019-05-03T09:49:18.254Z,9.93
2019-05-03T09:51:48.901Z,11.67
2019-05-03T09:54:25.525Z,14.73
2019-05-03T09:57:02.645Z,10.90
2019-05-03T09:59:35.011Z,22.43
2019-05-03T10:02:05.448Z,17.40
2019-05-03T10:04:36.795Z,14.77
2019-05-03T10:07:07.872Z,13.27
2019-05-03T10:09:38.151Z,17.23
2019-05-03T10:12:12.590Z,15.17
2019-05-03T10:14:45.066Z,15.53
2019-05-03T10:17:45.783Z,11.97
2019-05-03T10:20:16.428Z,11.83
2019-05-03T10:22:46.828Z,9.70
2019-05-03T10:25:17.351Z,15.90
2019-05-03T10:27:48.007Z,8.70
2019-05-03T10:30:26.105Z,20.83
2019-05-03T10:33:06.089Z,23.63
2019-05-03T10:35:39.075Z,17.97
2019-05-03T10:38:12.244Z,14.90
2019-05-03T10:40:42.528Z,15.07
2019-05-03T10:43:12.811Z,12.40
2019-05-03T10:45:45.692Z,13.80
2019-05-03T10:48:17.376Z,16.20
2019-05-03T10:50:50.749Z,13.33
2019-05-03T10:53:29.973Z,13.80
2019-05-03T10:56:24.530Z,20.37
2019-05-03T10:58:57.562Z,14.73
2019-05-03T11:01:38.531Z,16.87
2019-05-03T11:04:12.353Z,12.20
2019-05-03T11:06:45.757Z,8.50
2019-05-03T11:09:18.056Z,10.60
2019-05-03T11:11:48.453Z,16.90
2019-05-03T11:14:19.315Z,20.30
2019-05-03T11:16:49.923Z,13.77
2019-05-03T11:19:22.903Z,17.33
2019-05-03T11:21:54.776Z,15.10
2019-05-03T11:24:27.511Z,20.50
2019-05-03T11:27:00.209Z,17.23
2019-05-03T11:29:31.073Z,12.83
2019-05-03T11:32:20.858Z,15.57
2019-05-03T11:35:25.618Z,6.13
2019-05-03T11:38:05.322Z,14.03
2019-05-03T11:40:36.102Z,14.37
2019-05-03T11:43:06.740Z,17.70
2019-05-03T11:45:37.449Z,11.80
2019-05-03T11:48:08.320Z,10.43
2019-05-03T11:50:41.326Z,12.67
2019-05-03T11:53:14.655Z,19.37
2019-05-03T11:55:46.631Z,17.23
2019-05-03T11:58:27.068Z,15.63
2019-05-03T12:01:20.274Z,12.33
2019-05-03T12:03:57.681Z,12.47
2019-05-03T12:06:30.798Z,11.83
2019-05-03T12:09:01.410Z,13.13
2019-05-03T12:11:35.100Z,17.63
2019-05-03T12:14:11.733Z,15.43
2019-05-03T12:17:14.550Z,13.33
2019-05-03T12:19:24.176Z,11.83
2019-05-03T12:21:52.657Z,11.63
2019-05-03T12:24:24.149Z,15.30
2019-05-03T12:26:55.885Z,16.23
2019-05-03T12:29:26.694Z,17.27
2019-05-03T12:31:56.970Z,10.53
2019-05-03T12:34:27.226Z,14.07
2019-05-03T12:36:57.530Z,11.80
2019-05-03T12:39:30.589Z,13.03
2019-05-03T12:41:59.985Z,16.73
2019-05-03T12:44:30.375Z,12.87
2019-05-03T12:47:02.605Z,12.47
2019-05-03T12:49:33.090Z,14.53
2019-05-03T12:52:05.254Z,20.00
2019-05-03T12:54:36.976Z,12.80
2019-05-03T12:57:07.870Z,15.87
2019-05-03T12:59:59.806Z,11.57
2019-05-03T13:02:35.303Z,15.93
2019-05-03T13:05:05.982Z,16.00
2019-05-03T13:07:41.601Z,10.83
2019-05-03T13:10:12.192Z,17.57
2019-05-03T13:12:52.859Z,14.37
2019-05-03T13:15:16.376Z,19.43
2019-05-03T13:17:47.267Z,23.37
2019-05-03T13:20:21.005Z,14.90
2019-05-03T13:22:51.305Z,11.43
2019-05-03T13:25:21.665Z,16.27
2019-05-03T13:27:51.980Z,16.00
2019-05-03T13:30:22.392Z,13.40
2019-05-03T13:32:54.786Z,14.57
2019-05-03T13:35:25.668Z,13.60
2019-05-03T13:37:57.584Z,10.80
2019-05-03T13:40:28.035Z,15.10
2019-05-03T13:43:03.631Z,12.47
2019-05-03T13:45:30.510Z,12.33
2019-05-03T13:48:01.344Z,11.80
2019-05-03T13:50:31.977Z,10.70
2019-05-03T13:53:02.292Z,15.87
2019-05-03T13:55:32.614Z,12.30
2019-05-03T13:58:05.228Z,23.07
2019-05-03T14:00:36.122Z,13.37
2019-05-03T14:03:07.103Z,13.47
2019-05-03T14:05:37.387Z,13.90
2019-05-03T14:08:07.655Z,12.50
2019-05-03T14:10:38.229Z,11.40
2019-05-03T14:13:08.639Z,9.07
2019-05-03T14:15:38.938Z,12.17
2019-05-03T14:18:09.267Z,10.57
2019-05-03T14:21:05.027Z,16.43
2019-05-03T14:23:53.446Z,9.17
2019-05-03T14:26:24.572Z,10.40
2019-05-03T14:28:56.021Z,11.67
2019-05-03T14:31:26.312Z,18.33
2019-05-03T14:33:58.489Z,13.47
2019-05-03T14:36:28.806Z,16.30
2019-05-03T14:39:00.144Z,13.23
2019-05-03T14:41:30.404Z,10.83
2019-05-03T14:44:01.438Z,13.13
2019-05-03T14:46:33.295Z,12.27
2019-05-03T14:49:05.522Z,11.53
2019-05-03T14:51:36.246Z,14.73
2019-05-03T14:54:07.627Z,11.43
2019-05-03T14:56:59.541Z,14.40
2019-05-03T14:59:51.987Z,11.67
2019-05-03T15:02:42.562Z,15.77
2019-05-03T15:05:07.237Z,10.93
2019-05-03T15:07:40.393Z,12.67
2019-05-03T15:10:11.150Z,14.40
2019-05-03T15:12:41.739Z,12.27
2019-05-03T15:15:14.490Z,12.20
2019-05-03T15:17:45.776Z,14.93
2019-05-03T15:20:16.759Z,16.07
2019-05-03T15:22:47.427Z,15.23
2019-05-03T15:25:17.886Z,11.90
2019-05-03T15:27:48.618Z,8.23
2019-05-03T15:30:19.542Z,13.10
2019-05-03T15:32:57.612Z,9.00
2019-05-03T15:35:25.737Z,20.97
2019-05-03T15:37:55.950Z,15.40
2019-05-03T15:40:27.279Z,20.27
2019-05-03T15:43:11.823Z,15.67
2019-05-03T15:46:01.269Z,17.03
2019-05-03T15:48:35.763Z,16.60
2019-05-03T15:51:06.239Z,11.23
2019-05-03T15:53:36.569Z,14.27
2019-05-03T15:56:07.427Z,13.07
2019-05-03T15:58:39.535Z,14.30
2019-05-03T16:01:09.866Z,16.03
2019-05-03T16:03:40.505Z,21.97
2019-05-03T16:06:11.218Z,14.90
2019-05-03T16:08:41.879Z,16.13
2019-05-03T16:11:14.678Z,15.23
2019-05-03T16:16:40.152Z,15.43
2019-05-03T16:19:10.528Z,17.60
2019-05-03T16:21:40.872Z,14.70
2019-05-03T16:24:11.156Z,20.03
2019-05-03T16:26:59.944Z,17.23
2019-05-03T16:29:30.223Z,16.83
2019-05-03T16:32:00.588Z,20.37
2019-05-03T16:34:30.941Z,13.80
2019-05-03T16:37:01.856Z,17.47
2019-05-03T16:39:32.323Z,24.53
2019-05-03T16:42:04.230Z,21.40
2019-05-03T16:44:35.106Z,14.43
2019-05-03T16:47:07.234Z,20.23
2019-05-03T16:49:37.344Z,27.37
2019-05-03T16:52:07.760Z,20.10
2019-05-03T16:54:42.269Z,21.90
2019-05-03T16:57:14.857Z,16.93
2019-05-03T16:59:47.520Z,13.97
2019-05-03T17:02:19.382Z,22.90
2019-05-03T17:04:56.068Z,16.57
2019-05-03T17:07:35.384Z,16.33
2019-05-03T17:10:15.333Z,16.33
2019-05-03T17:12:46.321Z,17.90
2019-05-03T17:15:17.024Z,17.23
2019-05-03T17:17:47.483Z,16.83
2019-05-03T17:20:17.921Z,13.43
2019-05-03T17:22:48.299Z,17.07
2019-05-03T17:25:18.609Z,17.50
2019-05-03T17:27:49.213Z,15.90
2019-05-03T17:30:20.121Z,16.97
2019-05-03T17:32:50.832Z,17.33
2019-05-03T17:35:21.235Z,15.47
2019-05-03T17:37:51.610Z,16.53
2019-05-03T17:40:39.666Z,14.27
2019-05-03T17:43:15.731Z,16.27
2019-05-03T17:45:49.133Z,16.60
2019-05-03T17:48:19.446Z,14.70
2019-05-03T17:50:51.831Z,17.60
2019-05-03T17:53:54.837Z,18.13
2019-05-03T17:56:44.498Z,16.13
2019-05-03T17:59:25.763Z,22.83
2019-05-03T18:02:23.884Z,21.97
2019-05-03T18:05:17.291Z,11.93
2019-05-03T18:08:21.979Z,23.53
2019-05-03T18:10:59.212Z,25.30
2019-05-03T18:13:32.585Z,22.67
2019-05-03T18:16:04.928Z,16.83
2019-05-03T18:18:35.523Z,14.40
2019-05-03T18:21:06.287Z,24.40
2019-05-03T18:23:36.646Z,17.23
2019-05-03T18:26:07.278Z,22.47
2019-05-03T18:28:37.562Z,19.83
2019-05-03T18:31:08.803Z,15.40
2019-05-03T18:33:39.227Z,19.30
2019-05-03T18:36:11.133Z,23.17
2019-05-03T18:38:44.618Z,17.67
2019-05-03T18:41:14.999Z,19.53
2019-05-03T18:43:59.992Z,18.37
2019-05-03T18:46:44.578Z,19.97
2019-05-03T18:49:15.897Z,16.87
2019-05-03T18:51:49.219Z,21.93
2019-05-03T18:54:20.205Z,19.23
2019-05-03T18:56:50.726Z,19.23
2019-05-03T18:59:21.737Z,22.20
2019-05-03T19:01:52.083Z,19.53
2019-05-03T19:04:34.233Z,20.30
2019-05-03T19:07:06.666Z,26.70
2019-05-03T19:10:00.282Z,17.90
2019-05-03T19:12:46.212Z,20.93
2019-05-03T19:15:16.540Z,20.23
2019-05-03T19:18:04.360Z,19.20
2019-05-03T19:20:35.319Z,19.07
2019-05-03T19:23:05.852Z,18.17
2019-05-03T19:25:45.925Z,17.43
2019-05-03T19:28:08.324Z,16.13
2019-05-03T19:30:40.421Z,23.57
2019-05-03T19:33:12.679Z,14.67
2019-05-03T19:35:44.412Z,19.90
2019-05-03T19:38:16.979Z,20.60
2019-05-03T19:40:47.581Z,18.00
2019-05-03T19:43:17.892Z,20.10
2019-05-03T19:45:48.208Z,26.77
2019-05-03T19:48:18.509Z,22.00
2019-05-03T19:50:50.186Z,21.77
2019-05-03T19:53:39.545Z,25.83
2019-05-03T19:56:11.534Z,24.27
2019-05-03T19:58:41.717Z,29.67
2019-05-03T20:01:34.505Z,24.70
2019-05-03T20:04:15.401Z,24.23
2019-05-03T20:07:05.322Z,30.03
2019-05-03T20:09:37.130Z,28.20
2019-05-03T20:12:07.450Z,16.23
2019-05-03T20:14:37.768Z,24.33
2019-05-03T20:17:08.097Z,20.90
2019-05-03T20:19:41.205Z,29.30
2019-05-03T20:22:15.029Z,22.93
2019-05-03T20:24:46.491Z,22.50
2019-05-03T20:27:16.903Z,20.83
2019-05-03T20:29:48.961Z,20.73
2019-05-03T20:32:19.772Z,26.07
2019-05-03T20:34:50.515Z,21.40
2019-05-03T20:37:21.898Z,29.53
2019-05-03T20:39:54.523Z,31.70
2019-05-03T20:42:42.492Z,27.03
2019-05-03T20:45:16.898Z,20.23
2019-05-03T20:47:51.374Z,29.00
2019-05-03T20:50:21.729Z,24.10
2019-05-03T20:52:54.966Z,29.00
2019-05-03T20:55:25.720Z,25.70
2019-05-03T20:57:56.111Z,22.97
2019-05-03T21:00:27.131Z,23.17
2019-05-03T21:02:57.599Z,22.87
2019-05-03T21:05:32.056Z,20.33
2019-05-03T21:08:05.399Z,21.40
2019-05-03T21:10:35.363Z,18.67
2019-05-03T21:13:08.506Z,30.03
2019-05-03T21:15:44.612Z,18.93
2019-05-03T21:18:49.197Z,21.37
2019-05-03T21:21:29.209Z,19.87
2019-05-03T21:24:08.184Z,19.40
2019-05-03T21:26:38.469Z,18.57
2019-05-03T21:29:11.449Z,19.83
2019-05-03T21:31:41.704Z,20.30
2019-05-03T21:34:14.636Z,15.70
2019-05-03T21:36:46.504Z,18.63
2019-05-03T21:39:16.836Z,26.87
2019-05-03T21:41:48.225Z,16.50
2019-05-03T21:44:36.047Z,16.83
2019-05-03T21:47:31.178Z,15.20
2019-05-03T21:50:02.137Z,25.53
2019-05-03T21:52:32.873Z,15.33
2019-05-03T21:55:05.351Z,24.47
2019-05-03T21:57:35.053Z,19.33
2019-05-03T22:00:06.910Z,21.87
2019-05-03T22:02:39.912Z,16.13
2019-05-03T22:05:11.680Z,20.80
2019-05-03T22:07:44.371Z,19.13
2019-05-03T22:10:15.217Z,18.00
2019-05-03T22:12:45.495Z,27.17
2019-05-03T22:15:27.089Z,21.43
2019-05-03T22:18:19.114Z,16.37
2019-05-03T22:20:55.600Z,21.20
2019-05-03T22:24:04.463Z,19.57
2019-05-03T22:26:51.486Z,20.60
2019-05-03T22:29:22.164Z,19.13
2019-05-03T22:31:54.684Z,22.90
2019-05-03T22:34:25.779Z,23.20
2019-05-03T22:36:56.276Z,22.63
2019-05-03T22:39:26.588Z,25.97
2019-05-03T22:41:56.953Z,25.73
2019-05-03T22:44:27.565Z,25.30
2019-05-03T22:47:00.445Z,26.03
2019-05-03T22:49:30.727Z,28.43
2019-05-03T22:52:01.193Z,29.10
2019-05-03T22:54:34.498Z,29.77
2019-05-03T22:57:04.999Z,20.30
2019-05-03T22:59:35.683Z,24.17
2019-05-03T23:02:07.637Z,15.33
2019-05-03T23:04:38.214Z,22.10
2019-05-03T23:07:10.778Z,22.63
2019-05-03T23:09:41.344Z,18.73
2019-05-03T23:12:12.222Z,15.20
2019-05-03T23:14:44.527Z,13.27
2019-05-03T23:17:15.053Z,9.87
2019-05-03T23:19:48.412Z,9.00
2019-05-03T23:22:25.460Z,11.10
2019-05-03T23:24:56.717Z,12.33
2019-05-03T23:27:27.348Z,11.77
2019-05-03T23:30:00.564Z,9.93
2019-05-03T23:32:31.331Z,11.23
2019-05-03T23:35:02.379Z,10.10
2019-05-03T23:37:34.604Z,10.23
2019-05-03T23:40:08.563Z,16.30
2019-05-03T23:42:39.160Z,12.77
2019-05-03T23:45:09.388Z,7.70
2019-05-03T23:47:44.986Z,10.40
2019-05-03T23:50:18.847Z,8.20
2019-05-03T23:52:49.175Z,7.87
2019-05-03T23:55:36.980Z,5.93
2019-05-03T23:58:07.496Z,5.67
